Site contains unofficial IBTrACS data. Visit the IBTrACS Website to access archived data.

1889 Tropical Storm NOT_NAMED (1889282N09316)


IBTrACS version v04r00. Visit IBTrACS website for data access.
Please direct all questions to the IBTrACS Q and A forum

Storm track - Intensity - Wind Radii - Intensity Data - Source Data - All data

Summary Information

Storm ID 1889282N09316
Start Oct 8 12Z
Max Intensity 60 kt (Oct 19 12Z)
End Oct 20 18Z
ATCF IDs
Track status Best track data.

Storm track plot

Map of storm track

Intensity plots

Map of storm track

Radial wind information

No radial wind information for this storm


Position and Intensity Table

BASIN ISO_TIME_________ NATURE LAT LON MLC WIND
degrees north degrees east kts
NA 1889-10-08 12:00:00 TS 9.00 -44.00 30
NA 15:00:00 TS 9.24 -44.50 30
NA 18:00:00 TS 9.50 -45.00 30
NA 21:00:00 TS 9.78 -45.50 32
NA 1889-10-09 00:00:00 TS 10.10 -46.00 35
NA 03:00:00 TS 10.45 -46.50 35
NA 06:00:00 TS 10.80 -47.00 35
NA 09:00:00 TS 11.10 -47.50 35
NA 12:00:00 TS 11.40 -48.00 35
NA 15:00:00 TS 11.75 -48.50 37
NA 18:00:00 TS 12.10 -49.00 40
NA 21:00:00 TS 12.40 -49.50 40
NA 1889-10-10 00:00:00 TS 12.70 -50.00 40
NA 03:00:00 TS 13.05 -50.50 42
NA 06:00:00 TS 13.40 -51.00 45
NA 09:00:00 TS 13.69 -51.52 45
NA 12:00:00 TS 14.00 -52.00 45
NA 15:00:00 TS 14.39 -52.42 47
NA 18:00:00 TS 14.80 -52.80 50
NA 21:00:00 TS 15.15 -53.15 50
NA 1889-10-11 00:00:00 TS 15.50 -53.50 50
NA 03:00:00 TS 15.90 -53.90 50
NA 06:00:00 TS 16.30 -54.30 50
NA 09:00:00 TS 16.60 -54.66 50
NA 12:00:00 TS 17.00 -55.00 50
NA 15:00:00 TS 17.65 -55.36 50
NA 18:00:00 TS 18.40 -55.70 50
NA 21:00:00 TS 19.06 -56.01 50
NA 1889-10-12 00:00:00 TS 19.70 -56.30 50
NA 03:00:00 TS 20.35 -56.60 50
NA 06:00:00 TS 21.00 -56.90 50
NA 09:00:00 TS 21.65 -57.22 50
NA 12:00:00 TS 22.30 -57.50 50
NA 15:00:00 TS 22.95 -57.68 50
NA 18:00:00 TS 23.60 -57.80 50
NA 21:00:00 TS 24.25 -57.90 50
NA 1889-10-13 00:00:00 TS 24.90 -58.00 50
NA 03:00:00 TS 25.55 -58.15 50
NA 06:00:00 TS 26.20 -58.30 50
NA 09:00:00 TS 26.88 -58.42 50
NA 12:00:00 TS 27.50 -58.50 50
NA 15:00:00 TS 27.98 -58.52 50
NA 18:00:00 TS 28.40 -58.50 50
NA 21:00:00 TS 28.85 -58.50 47
NA 1889-10-14 00:00:00 TS 29.30 -58.50 45
NA 03:00:00 TS 29.76 -58.50 45
NA 06:00:00 TS 30.20 -58.50 45
NA 09:00:00 TS 30.60 -58.50 45
NA 12:00:00 TS 31.00 -58.50 45
NA 15:00:00 TS 31.44 -58.50 42
NA 18:00:00 TS 31.90 -58.50 40
NA 21:00:00 TS 32.36 -58.50 40
NA 1889-10-15 00:00:00 TS 32.80 -58.50 40
NA 03:00:00 TS 33.20 -58.50 37
NA 06:00:00 TS 33.60 -58.50 35
NA 09:00:00 TS 34.07 -58.50 35
NA 12:00:00 TS 34.50 -58.50 35
NA 15:00:00 TS 34.78 -58.50 35
NA 18:00:00 TS 35.00 -58.50 35
NA 21:00:00 TS 35.25 -58.51 35
NA 1889-10-16 00:00:00 TS 35.50 -58.50 35
NA 03:00:00 TS 35.75 -58.46 37
NA 06:00:00 ET 36.00 -58.40 40
NA 09:00:00 ET 36.27 -58.36 40
NA 12:00:00 ET 36.50 -58.30 40
NA 15:00:00 ET 36.63 -58.20 42
NA 18:00:00 ET 36.70 -58.10 45
NA 21:00:00 ET 36.76 -58.07 45
NA 1889-10-17 00:00:00 ET 36.80 -58.00 45
NA 03:00:00 ET 36.85 -57.78 47
NA 06:00:00 ET 36.90 -57.50 50
NA 09:00:00 ET 36.92 -57.31 50
NA 12:00:00 ET 37.00 -57.00 50
NA 15:00:00 ET 37.22 -56.40 50
NA 18:00:00 ET 37.50 -55.70 50
NA 21:00:00 ET 37.75 -55.10 50
NA 1889-10-18 00:00:00 ET 38.00 -54.50 50
NA 03:00:00 ET 38.25 -53.85 50
NA 06:00:00 ET 38.50 -53.20 50
NA 09:00:00 ET 38.72 -52.61 50
NA 12:00:00 ET 39.00 -52.00 50
NA 15:00:00 ET 39.42 -51.27 50
NA 18:00:00 ET 39.90 -50.50 50
NA 21:00:00 ET 40.35 -49.75 50
NA 1889-10-19 00:00:00 ET 40.80 -49.00 50
NA 03:00:00 ET 41.25 -48.25 52
NA 06:00:00 ET 41.70 -47.50 55
NA 09:00:00 ET 42.15 -46.75 57
NA 12:00:00 ET 42.60 -46.00 60
NA 15:00:00 ET 43.04 -45.27 60
NA 18:00:00 ET 43.50 -44.50 60
NA 21:00:00 ET 43.99 -43.61 60
NA 1889-10-20 00:00:00 ET 44.50 -42.70 60
NA 03:00:00 ET 45.00 -41.85 60
NA 06:00:00 ET 45.50 -41.00 60
NA 09:00:00 ET 46.00 -40.10 60
NA 12:00:00 ET 46.50 -39.20 60
NA 15:00:00 ET 47.00 -38.34 60
NA 18:00:00 ET 47.50 -37.50 60

Source Information

Agency Information
USA
TOKYO
CMA
HKO
NEWDELHI
REUNION
BOM
NADI
WELLINGTON
DS824
TD9636
TD9635
NEUMANN
MLC

All available IBTrACS Data

SEASON BASIN SUBBASIN ISO_TIME_________ NATURE LAT LON DIST2LAND LANDFALL IFLAG USA SSHS MLC LAT MLC LON MLC CLASS MLC WIND STORM SPEED STORM DIR
Year degrees north degrees east km km 1 degrees north degrees east kts kts degrees
1889 NA NA 1889-10-08 12:00:00 TS 9.00 -44.00 963 930 _____________O -1 9.00 -44.00 TD 30 11 296
1889 NA NA 15:00:00 TS 9.24 -44.50 930 907 _____________P -1 9.24 -44.50 TD 30 11 297
1889 NA NA 18:00:00 TS 9.50 -45.00 907 888 _____________O -1 9.50 -45.00 TD 30 11 299
1889 NA NA 21:00:00 TS 9.78 -45.50 888 873 _____________P -1 9.78 -45.50 TD 32 12 301
1889 NA NA 1889-10-09 00:00:00 TS 10.10 -46.00 874 864 _____________O -1 10.10 -46.00 TS 35 12 304
1889 NA NA 03:00:00 TS 10.45 -46.50 864 862 _____________P -1 10.45 -46.50 TS 35 12 305
1889 NA NA 06:00:00 TS 10.80 -47.00 868 863 _____________O -1 10.80 -47.00 TS 35 12 303
1889 NA NA 09:00:00 TS 11.10 -47.50 867 855 _____________P -1 11.10 -47.50 TS 35 12 301
1889 NA NA 12:00:00 TS 11.40 -48.00 859 853 _____________O -1 11.40 -48.00 TS 35 12 304
1889 NA NA 15:00:00 TS 11.75 -48.50 856 856 _____________P -1 11.75 -48.50 TS 37 12 306
1889 NA NA 18:00:00 TS 12.10 -49.00 868 863 _____________O -1 12.10 -49.00 TS 40 12 304
1889 NA NA 21:00:00 TS 12.40 -49.50 874 869 _____________P -1 12.40 -49.50 TS 40 11 302
1889 NA NA 1889-10-10 00:00:00 TS 12.70 -50.00 884 880 _____________O -1 12.70 -50.00 TS 40 12 304
1889 NA NA 03:00:00 TS 13.05 -50.50 892 892 _____________P -1 13.05 -50.50 TS 42 12 306
1889 NA NA 06:00:00 TS 13.40 -51.00 910 906 _____________O -1 13.40 -51.00 TS 45 12 303
1889 NA NA 09:00:00 TS 13.69 -51.52 922 918 _____________P -1 13.69 -51.52 TS 45 11 302
1889 NA NA 12:00:00 TS 14.00 -52.00 938 935 _____________O -1 14.00 -52.00 TS 45 11 308
1889 NA NA 15:00:00 TS 14.39 -52.42 972 970 _____________P -1 14.39 -52.42 TS 47 11 316
1889 NA NA 18:00:00 TS 14.80 -52.80 1001 988 _____________O -1 14.80 -52.80 TS 50 10 317
1889 NA NA 21:00:00 TS 15.15 -53.15 978 974 _____________P -1 15.15 -53.15 TS 50 10 316
1889 NA NA 1889-10-11 00:00:00 TS 15.50 -53.50 974 964 _____________O -1 15.50 -53.50 TS 50 10 316
1889 NA NA 03:00:00 TS 15.90 -53.90 964 958 _____________P -1 15.90 -53.90 TS 50 11 316
1889 NA NA 06:00:00 TS 16.30 -54.30 958 948 _____________O -1 16.30 -54.30 TS 50 10 314
1889 NA NA 09:00:00 TS 16.60 -54.66 948 948 _____________P -1 16.60 -54.66 TS 50 10 316
1889 NA NA 12:00:00 TS 17.00 -55.00 957 957 _____________O -1 17.00 -55.00 TS 50 13 328
1889 NA NA 15:00:00 TS 17.65 -55.36 989 989 _____________P -1 17.65 -55.36 TS 50 16 335
1889 NA NA 18:00:00 TS 18.40 -55.70 1033 1013 _____________O -1 18.40 -55.70 TS 50 15 336
1889 NA NA 21:00:00 TS 19.06 -56.01 1013 986 _____________P -1 19.06 -56.01 TS 50 14 336
1889 NA NA 1889-10-12 00:00:00 TS 19.70 -56.30 988 965 _____________O -1 19.70 -56.30 TS 50 14 337
1889 NA NA 03:00:00 TS 20.35 -56.60 967 952 _____________P -1 20.35 -56.60 TS 50 14 337
1889 NA NA 06:00:00 TS 21.00 -56.90 955 943 _____________O -1 21.00 -56.90 TS 50 14 336
1889 NA NA 09:00:00 TS 21.65 -57.22 951 940 _____________P -1 21.65 -57.22 TS 50 14 337
1889 NA NA 12:00:00 TS 22.30 -57.50 950 950 _____________O -1 22.30 -57.50 TS 50 14 342
1889 NA NA 15:00:00 TS 22.95 -57.68 963 963 _____________P -1 22.95 -57.68 TS 50 13 348
1889 NA NA 18:00:00 TS 23.60 -57.80 996 996 _____________O -1 23.60 -57.80 TS 50 13 351
1889 NA NA 21:00:00 TS 24.25 -57.90 1027 1027 _____________P -1 24.25 -57.90 TS 50 13 352
1889 NA NA 1889-10-13 00:00:00 TS 24.90 -58.00 1069 1069 _____________O -1 24.90 -58.00 TS 50 13 350
1889 NA NA 03:00:00 TS 25.55 -58.15 1115 1108 _____________P -1 25.55 -58.15 TS 50 13 348
1889 NA NA 06:00:00 TS 26.20 -58.30 1150 1150 _____________O -1 26.20 -58.30 TS 50 14 350
1889 NA NA 09:00:00 TS 26.88 -58.42 1202 1202 _____________P -1 26.88 -58.42 TS 50 13 352
1889 NA NA 12:00:00 TS 27.50 -58.50 1249 1249 _____________O -1 27.50 -58.50 TS 50 11 356
1889 NA NA 15:00:00 TS 27.98 -58.52 1294 1294 _____________P -1 27.98 -58.52 TS 50 9 0
1889 NA NA 18:00:00 TS 28.40 -58.50 1330 1330 _____________O -1 28.40 -58.50 TS 50 9 2
1889 NA NA 21:00:00 TS 28.85 -58.50 1377 1368 _____________P -1 28.85 -58.50 TS 47 9 0
1889 NA NA 1889-10-14 00:00:00 TS 29.30 -58.50 1414 1414 _____________O -1 29.30 -58.50 TS 45 9 0
1889 NA NA 03:00:00 TS 29.76 -58.50 1462 1462 _____________P -1 29.76 -58.50 TS 45 9 0
1889 NA NA 06:00:00 TS 30.20 -58.50 1500 1500 _____________O -1 30.20 -58.50 TS 45 8 0
1889 NA NA 09:00:00 TS 30.60 -58.50 1539 1514 _____________P -1 30.60 -58.50 TS 45 8 1
1889 NA NA 12:00:00 TS 31.00 -58.50 1514 1473 _____________O -1 31.00 -58.50 TS 45 8 0
1889 NA NA 15:00:00 TS 31.44 -58.50 1473 1421 _____________P -1 31.44 -58.50 TS 42 9 0
1889 NA NA 18:00:00 TS 31.90 -58.50 1421 1380 _____________O -1 31.90 -58.50 TS 40 9 1
1889 NA NA 21:00:00 TS 32.36 -58.50 1370 1329 _____________P -1 32.36 -58.50 TS 40 9 0
1889 NA NA 1889-10-15 00:00:00 TS 32.80 -58.50 1329 1289 _____________O -1 32.80 -58.50 TS 40 8 0
1889 NA NA 03:00:00 TS 33.20 -58.50 1289 1248 _____________P -1 33.20 -58.50 TS 37 8 1
1889 NA NA 06:00:00 TS 33.60 -58.50 1248 1209 _____________O -1 33.60 -58.50 TS 35 9 0
1889 NA NA 09:00:00 TS 34.07 -58.50 1199 1159 _____________P -1 34.07 -58.50 TS 35 9 0
1889 NA NA 12:00:00 TS 34.50 -58.50 1159 1130 _____________O -1 34.50 -58.50 TS 35 7 2
1889 NA NA 15:00:00 TS 34.78 -58.50 1130 1110 _____________P -1 34.78 -58.50 TS 35 5 2
1889 NA NA 18:00:00 TS 35.00 -58.50 1110 1091 _____________O -1 35.00 -58.50 TS 35 5 0
1889 NA NA 21:00:00 TS 35.25 -58.51 1081 1062 _____________P -1 35.25 -58.51 TS 35 5 2
1889 NA NA 1889-10-16 00:00:00 TS 35.50 -58.50 1062 1043 _____________O -1 35.50 -58.50 TS 35 5 5
1889 NA NA 03:00:00 TS 35.75 -58.46 1034 1020 _____________P -1 35.75 -58.46 TS 37 5 9
1889 NA NA 06:00:00 ET 36.00 -58.40 1020 992 _____________O -1 36.00 -58.40 EX 40 5 8
1889 NA NA 09:00:00 ET 36.27 -58.36 992 979 _____________P -1 36.27 -58.36 EX 40 5 9
1889 NA NA 12:00:00 ET 36.50 -58.30 979 970 _____________O -1 36.50 -58.30 EX 40 4 20
1889 NA NA 15:00:00 ET 36.63 -58.20 975 966 _____________P -1 36.63 -58.20 EX 42 3 39
1889 NA NA 18:00:00 ET 36.70 -58.10 971 962 _____________O -1 36.70 -58.10 EX 45 2 39
1889 NA NA 21:00:00 ET 36.76 -58.07 962 962 _____________P -1 36.76 -58.07 EX 45 1 37
1889 NA NA 1889-10-17 00:00:00 ET 36.80 -58.00 966 966 _____________O -1 36.80 -58.00 EX 45 3 68
1889 NA NA 03:00:00 ET 36.85 -57.78 962 962 _____________P -1 36.85 -57.78 EX 47 4 76
1889 NA NA 06:00:00 ET 36.90 -57.50 970 970 _____________O -1 36.90 -57.50 EX 50 4 80
1889 NA NA 09:00:00 ET 36.92 -57.31 976 968 _____________P -1 36.92 -57.31 EX 50 4 76
1889 NA NA 12:00:00 ET 37.00 -57.00 974 965 _____________O -1 37.00 -57.00 EX 50 8 67
1889 NA NA 15:00:00 ET 37.22 -56.40 972 961 _____________P -1 37.22 -56.40 EX 50 11 64
1889 NA NA 18:00:00 ET 37.50 -55.70 966 960 _____________O -1 37.50 -55.70 EX 50 12 63
1889 NA NA 21:00:00 ET 37.75 -55.10 971 959 _____________P -1 37.75 -55.10 EX 50 11 62
1889 NA NA 1889-10-18 00:00:00 ET 38.00 -54.50 959 934 _____________O -1 38.00 -54.50 EX 50 11 63
1889 NA NA 03:00:00 ET 38.25 -53.85 934 900 _____________P -1 38.25 -53.85 EX 50 11 64
1889 NA NA 06:00:00 ET 38.50 -53.20 900 879 _____________O -1 38.50 -53.20 EX 50 11 64
1889 NA NA 09:00:00 ET 38.72 -52.61 879 849 _____________P -1 38.72 -52.61 EX 50 11 62
1889 NA NA 12:00:00 ET 39.00 -52.00 850 813 _____________O -1 39.00 -52.00 EX 50 13 56
1889 NA NA 15:00:00 ET 39.42 -51.27 815 776 _____________P -1 39.42 -51.27 EX 50 15 52
1889 NA NA 18:00:00 ET 39.90 -50.50 776 748 _____________O -1 39.90 -50.50 EX 50 15 52
1889 NA NA 21:00:00 ET 40.35 -49.75 754 727 _____________P -1 40.35 -49.75 EX 50 15 52
1889 NA NA 1889-10-19 00:00:00 ET 40.80 -49.00 727 711 _____________O -1 40.80 -49.00 EX 50 14 52
1889 NA NA 03:00:00 ET 41.25 -48.25 720 706 _____________P -1 41.25 -48.25 EX 52 14 51
1889 NA NA 06:00:00 ET 41.70 -47.50 708 704 _____________O -1 41.70 -47.50 EX 55 14 51
1889 NA NA 09:00:00 ET 42.15 -46.75 717 709 _____________P -1 42.15 -46.75 EX 57 14 51
1889 NA NA 12:00:00 ET 42.60 -46.00 720 719 _____________O -1 42.60 -46.00 EX 60 14 51
1889 NA NA 15:00:00 ET 43.04 -45.27 736 736 _____________P -1 43.04 -45.27 EX 60 14 51
1889 NA NA 18:00:00 ET 43.50 -44.50 757 757 _____________O -1 43.50 -44.50 EX 60 15 52
1889 NA NA 21:00:00 ET 43.99 -43.61 793 793 _____________P -1 43.99 -43.61 EX 60 16 52
1889 NA NA 1889-10-20 00:00:00 ET 44.50 -42.70 830 830 _____________O -1 44.50 -42.70 EX 60 16 51
1889 NA NA 03:00:00 ET 45.00 -41.85 871 867 _____________P -1 45.00 -41.85 EX 60 16 50
1889 NA NA 06:00:00 ET 45.50 -41.00 910 910 _____________O -1 45.50 -41.00 EX 60 16 51
1889 NA NA 09:00:00 ET 46.00 -40.10 961 961 _____________P -1 46.00 -40.10 EX 60 16 51
1889 NA NA 12:00:00 ET 46.50 -39.20 1016 1016 _____________O -1 46.50 -39.20 EX 60 16 50
1889 NA NA 15:00:00 ET 47.00 -38.34 1074 1074 _____________P -1 47.00 -38.34 EX 60 15 49
1889 NA NA 18:00:00 ET 47.50 -37.50 1127 _____________O -1 47.50 -37.50 EX 60 15 49